sensor_id;sensor_type;location;lat;lon;timestamp;P1;durP1;ratioP1;P2;durP2;ratioP2
1993;SDS011;998;49.906;10.908;2023-05-10T00:00:08;7.50;;;3.00;;
1993;SDS011;998;49.906;10.908;2023-05-10T00:02:37;4.37;;;3.20;;
1993;SDS011;998;49.906;10.908;2023-05-10T00:05:06;5.30;;;3.03;;
1993;SDS011;998;49.906;10.908;2023-05-10T00:07:34;7.77;;;3.47;;
1993;SDS011;998;49.906;10.908;2023-05-10T00:10:02;7.57;;;4.30;;
1993;SDS011;998;49.906;10.908;2023-05-10T00:12:29;11.60;;;6.70;;
1993;SDS011;998;49.906;10.908;2023-05-10T00:14:57;7.27;;;4.80;;
1993;SDS011;998;49.906;10.908;2023-05-10T00:17:24;6.27;;;4.27;;
1993;SDS011;998;49.906;10.908;2023-05-10T00:19:51;6.37;;;4.23;;
1993;SDS011;998;49.906;10.908;2023-05-10T00:22:20;6.50;;;3.03;;
1993;SDS011;998;49.906;10.908;2023-05-10T00:24:48;7.20;;;3.20;;
1993;SDS011;998;49.906;10.908;2023-05-10T00:27:15;4.00;;;3.10;;
1993;SDS011;998;49.906;10.908;2023-05-10T00:29:43;8.70;;;3.37;;
1993;SDS011;998;49.906;10.908;2023-05-10T00:32:10;7.57;;;3.67;;
1993;SDS011;998;49.906;10.908;2023-05-10T00:34:39;4.87;;;3.33;;
1993;SDS011;998;49.906;10.908;2023-05-10T00:37:06;5.80;;;3.23;;
1993;SDS011;998;49.906;10.908;2023-05-10T00:39:35;9.47;;;3.00;;
1993;SDS011;998;49.906;10.908;2023-05-10T00:42:03;5.20;;;3.20;;
1993;SDS011;998;49.906;10.908;2023-05-10T00:44:30;4.87;;;3.10;;
1993;SDS011;998;49.906;10.908;2023-05-10T00:46:58;5.53;;;3.30;;
1993;SDS011;998;49.906;10.908;2023-05-10T00:49:26;7.00;;;3.90;;
1993;SDS011;998;49.906;10.908;2023-05-10T00:51:53;7.03;;;4.40;;
1993;SDS011;998;49.906;10.908;2023-05-10T00:54:21;4.83;;;4.10;;
1993;SDS011;998;49.906;10.908;2023-05-10T00:56:50;5.13;;;4.03;;
1993;SDS011;998;49.906;10.908;2023-05-10T00:59:18;5.40;;;4.20;;
1993;SDS011;998;49.906;10.908;2023-05-10T01:01:46;6.60;;;3.87;;
1993;SDS011;998;49.906;10.908;2023-05-10T01:04:14;5.53;;;3.87;;
1993;SDS011;998;49.906;10.908;2023-05-10T01:06:41;5.30;;;3.57;;
1993;SDS011;998;49.906;10.908;2023-05-10T01:09:09;6.67;;;4.10;;
1993;SDS011;998;49.906;10.908;2023-05-10T01:11:38;6.00;;;3.93;;
1993;SDS011;998;49.906;10.908;2023-05-10T01:14:07;7.10;;;4.43;;
1993;SDS011;998;49.906;10.908;2023-05-10T01:16:36;6.67;;;4.27;;
1993;SDS011;998;49.906;10.908;2023-05-10T01:19:05;7.97;;;4.37;;
1993;SDS011;998;49.906;10.908;2023-05-10T01:21:44;6.50;;;4.47;;
1993;SDS011;998;49.906;10.908;2023-05-10T01:24:27;6.73;;;3.80;;
1993;SDS011;998;49.906;10.908;2023-05-10T01:27:14;5.73;;;3.70;;
1993;SDS011;998;49.906;10.908;2023-05-10T01:30:07;6.70;;;3.63;;
1993;SDS011;998;49.906;10.908;2023-05-10T01:32:50;5.67;;;3.90;;
1993;SDS011;998;49.906;10.908;2023-05-10T01:35:23;5.63;;;3.73;;
1993;SDS011;998;49.906;10.908;2023-05-10T01:37:59;8.40;;;4.80;;
1993;SDS011;998;49.906;10.908;2023-05-10T01:40:36;13.10;;;8.90;;
1993;SDS011;998;49.906;10.908;2023-05-10T01:43:11;8.57;;;5.10;;
1993;SDS011;998;49.906;10.908;2023-05-10T01:45:45;8.13;;;4.90;;
1993;SDS011;998;49.906;10.908;2023-05-10T01:48:19;6.40;;;4.50;;
1993;SDS011;998;49.906;10.908;2023-05-10T01:50:49;7.20;;;4.77;;
1993;SDS011;998;49.906;10.908;2023-05-10T01:53:18;9.53;;;5.03;;
1993;SDS011;998;49.906;10.908;2023-05-10T01:55:47;7.30;;;4.50;;
1993;SDS011;998;49.906;10.908;2023-05-10T01:58:17;9.47;;;4.80;;
1993;SDS011;998;49.906;10.908;2023-05-10T02:00:47;9.90;;;5.10;;
1993;SDS011;998;49.906;10.908;2023-05-10T02:03:16;8.43;;;4.97;;
1993;SDS011;998;49.906;10.908;2023-05-10T02:05:48;6.47;;;4.40;;
1993;SDS011;998;49.906;10.908;2023-05-10T02:08:16;8.30;;;4.60;;
1993;SDS011;998;49.906;10.908;2023-05-10T02:10:45;6.57;;;4.63;;
1993;SDS011;998;49.906;10.908;2023-05-10T02:13:14;9.50;;;4.70;;
1993;SDS011;998;49.906;10.908;2023-05-10T02:15:43;9.43;;;5.80;;
1993;SDS011;998;49.906;10.908;2023-05-10T02:18:14;7.93;;;5.67;;
1993;SDS011;998;49.906;10.908;2023-05-10T02:20:44;7.53;;;5.50;;
1993;SDS011;998;49.906;10.908;2023-05-10T02:23:13;7.80;;;5.97;;
1993;SDS011;998;49.906;10.908;2023-05-10T02:25:43;6.80;;;5.10;;
1993;SDS011;998;49.906;10.908;2023-05-10T02:28:11;7.67;;;4.77;;
1993;SDS011;998;49.906;10.908;2023-05-10T02:30:40;7.10;;;4.80;;
1993;SDS011;998;49.906;10.908;2023-05-10T02:33:09;7.57;;;5.20;;
1993;SDS011;998;49.906;10.908;2023-05-10T02:35:37;6.90;;;5.30;;
1993;SDS011;998;49.906;10.908;2023-05-10T02:38:07;10.23;;;4.60;;
1993;SDS011;998;49.906;10.908;2023-05-10T02:40:35;9.70;;;5.37;;
1993;SDS011;998;49.906;10.908;2023-05-10T02:43:04;7.80;;;6.27;;
1993;SDS011;998;49.906;10.908;2023-05-10T02:45:35;10.40;;;5.73;;
1993;SDS011;998;49.906;10.908;2023-05-10T02:48:05;7.87;;;5.60;;
1993;SDS011;998;49.906;10.908;2023-05-10T02:50:33;8.93;;;5.97;;
1993;SDS011;998;49.906;10.908;2023-05-10T02:53:03;6.53;;;5.40;;
1993;SDS011;998;49.906;10.908;2023-05-10T02:55:37;6.73;;;5.10;;
1993;SDS011;998;49.906;10.908;2023-05-10T02:58:07;7.93;;;5.80;;
1993;SDS011;998;49.906;10.908;2023-05-10T03:00:34;10.77;;;6.77;;
1993;SDS011;998;49.906;10.908;2023-05-10T03:03:02;10.50;;;6.90;;
1993;SDS011;998;49.906;10.908;2023-05-10T03:05:29;8.30;;;5.50;;
1993;SDS011;998;49.906;10.908;2023-05-10T03:07:57;8.53;;;5.53;;
1993;SDS011;998;49.906;10.908;2023-05-10T03:10:27;9.93;;;5.50;;
1993;SDS011;998;49.906;10.908;2023-05-10T03:13:01;6.40;;;5.00;;
1993;SDS011;998;49.906;10.908;2023-05-10T03:15:39;5.70;;;5.10;;
1993;SDS011;998;49.906;10.908;2023-05-10T03:18:18;7.23;;;5.00;;
1993;SDS011;998;49.906;10.908;2023-05-10T03:20:49;11.97;;;6.53;;
1993;SDS011;998;49.906;10.908;2023-05-10T03:23:25;6.20;;;5.60;;
1993;SDS011;998;49.906;10.908;2023-05-10T03:25:58;9.20;;;4.80;;
1993;SDS011;998;49.906;10.908;2023-05-10T03:28:27;7.50;;;4.57;;
1993;SDS011;998;49.906;10.908;2023-05-10T03:30:55;10.63;;;4.50;;
1993;SDS011;998;49.906;10.908;2023-05-10T03:33:23;6.87;;;5.20;;
1993;SDS011;998;49.906;10.908;2023-05-10T03:35:51;6.90;;;5.27;;
1993;SDS011;998;49.906;10.908;2023-05-10T03:38:18;5.77;;;4.40;;
1993;SDS011;998;49.906;10.908;2023-05-10T03:40:46;6.17;;;4.70;;
1993;SDS011;998;49.906;10.908;2023-05-10T03:43:14;5.60;;;4.67;;
1993;SDS011;998;49.906;10.908;2023-05-10T03:45:42;4.80;;;3.80;;
1993;SDS011;998;49.906;10.908;2023-05-10T03:48:09;4.80;;;3.70;;
1993;SDS011;998;49.906;10.908;2023-05-10T03:50:38;4.67;;;3.17;;
1993;SDS011;998;49.906;10.908;2023-05-10T03:53:06;3.60;;;2.03;;
1993;SDS011;998;49.906;10.908;2023-05-10T03:55:33;4.50;;;2.90;;
1993;SDS011;998;49.906;10.908;2023-05-10T03:58:01;3.47;;;2.37;;
1993;SDS011;998;49.906;10.908;2023-05-10T04:00:30;2.50;;;1.20;;
1993;SDS011;998;49.906;10.908;2023-05-10T04:02:58;3.07;;;1.50;;
1993;SDS011;998;49.906;10.908;2023-05-10T04:05:25;5.53;;;1.77;;
1993;SDS011;998;49.906;10.908;2023-05-10T04:07:53;3.50;;;1.57;;
1993;SDS011;998;49.906;10.908;2023-05-10T04:10:20;2.93;;;1.20;;
1993;SDS011;998;49.906;10.908;2023-05-10T04:12:47;2.37;;;1.20;;
1993;SDS011;998;49.906;10.908;2023-05-10T04:15:15;3.20;;;1.67;;
1993;SDS011;998;49.906;10.908;2023-05-10T04:17:44;2.97;;;1.30;;
1993;SDS011;998;49.906;10.908;2023-05-10T04:20:11;2.73;;;1.10;;
1993;SDS011;998;49.906;10.908;2023-05-10T04:22:39;2.40;;;1.30;;
1993;SDS011;998;49.906;10.908;2023-05-10T04:25:07;2.30;;;1.00;;
1993;SDS011;998;49.906;10.908;2023-05-10T04:27:35;2.10;;;1.03;;
1993;SDS011;998;49.906;10.908;2023-05-10T04:30:02;2.10;;;1.00;;
1993;SDS011;998;49.906;10.908;2023-05-10T04:32:31;1.93;;;0.90;;
1993;SDS011;998;49.906;10.908;2023-05-10T04:34:59;2.60;;;1.03;;
1993;SDS011;998;49.906;10.908;2023-05-10T04:37:28;2.67;;;0.70;;
1993;SDS011;998;49.906;10.908;2023-05-10T04:39:56;1.90;;;0.80;;
1993;SDS011;998;49.906;10.908;2023-05-10T04:42:25;2.20;;;0.93;;
1993;SDS011;998;49.906;10.908;2023-05-10T04:44:52;2.00;;;0.80;;
1993;SDS011;998;49.906;10.908;2023-05-10T04:47:20;2.00;;;0.90;;
1993;SDS011;998;49.906;10.908;2023-05-10T04:49:47;2.10;;;0.90;;
1993;SDS011;998;49.906;10.908;2023-05-10T04:52:16;2.47;;;1.10;;
1993;SDS011;998;49.906;10.908;2023-05-10T04:54:43;3.70;;;1.00;;
1993;SDS011;998;49.906;10.908;2023-05-10T04:57:11;1.90;;;0.80;;
1993;SDS011;998;49.906;10.908;2023-05-10T04:59:38;1.90;;;0.80;;
1993;SDS011;998;49.906;10.908;2023-05-10T05:02:05;2.00;;;0.80;;
1993;SDS011;998;49.906;10.908;2023-05-10T05:04:33;2.17;;;0.90;;
1993;SDS011;998;49.906;10.908;2023-05-10T05:07:00;1.90;;;0.70;;
1993;SDS011;998;49.906;10.908;2023-05-10T05:09:29;2.17;;;1.03;;
1993;SDS011;998;49.906;10.908;2023-05-10T05:11:57;2.00;;;0.90;;
1993;SDS011;998;49.906;10.908;2023-05-10T05:14:24;2.03;;;0.90;;
1993;SDS011;998;49.906;10.908;2023-05-10T05:16:52;2.03;;;0.90;;
1993;SDS011;998;49.906;10.908;2023-05-10T05:19:19;2.33;;;1.00;;
1993;SDS011;998;49.906;10.908;2023-05-10T05:21:47;2.30;;;0.90;;
1993;SDS011;998;49.906;10.908;2023-05-10T05:24:14;2.40;;;0.90;;
1993;SDS011;998;49.906;10.908;2023-05-10T05:26:43;2.10;;;0.87;;
1993;SDS011;998;49.906;10.908;2023-05-10T05:29:11;2.17;;;0.80;;
1993;SDS011;998;49.906;10.908;2023-05-10T05:31:38;3.00;;;0.90;;
1993;SDS011;998;49.906;10.908;2023-05-10T05:34:05;2.10;;;0.80;;
1993;SDS011;998;49.906;10.908;2023-05-10T05:36:35;1.93;;;0.77;;
1993;SDS011;998;49.906;10.908;2023-05-10T05:39:03;1.90;;;0.70;;
1993;SDS011;998;49.906;10.908;2023-05-10T05:41:31;2.03;;;1.10;;
1993;SDS011;998;49.906;10.908;2023-05-10T05:44:00;2.00;;;0.80;;
1993;SDS011;998;49.906;10.908;2023-05-10T05:46:27;2.23;;;1.00;;
1993;SDS011;998;49.906;10.908;2023-05-10T05:48:54;2.00;;;0.70;;
1993;SDS011;998;49.906;10.908;2023-05-10T05:51:22;2.13;;;0.90;;
1993;SDS011;998;49.906;10.908;2023-05-10T05:53:49;4.30;;;2.40;;
1993;SDS011;998;49.906;10.908;2023-05-10T05:56:17;2.57;;;1.00;;
1993;SDS011;998;49.906;10.908;2023-05-10T05:58:49;2.20;;;0.90;;
1993;SDS011;998;49.906;10.908;2023-05-10T06:01:18;3.00;;;0.90;;
1993;SDS011;998;49.906;10.908;2023-05-10T06:03:45;2.10;;;0.90;;
1993;SDS011;998;49.906;10.908;2023-05-10T06:06:13;2.30;;;1.13;;
1993;SDS011;998;49.906;10.908;2023-05-10T06:08:40;3.03;;;0.80;;
1993;SDS011;998;49.906;10.908;2023-05-10T06:11:08;2.10;;;0.80;;
1993;SDS011;998;49.906;10.908;2023-05-10T06:13:35;2.03;;;0.97;;
1993;SDS011;998;49.906;10.908;2023-05-10T06:16:02;3.73;;;1.07;;
1993;SDS011;998;49.906;10.908;2023-05-10T06:18:32;2.37;;;0.97;;
1993;SDS011;998;49.906;10.908;2023-05-10T06:20:59;2.97;;;1.77;;
1993;SDS011;998;49.906;10.908;2023-05-10T06:23:27;2.77;;;1.40;;
1993;SDS011;998;49.906;10.908;2023-05-10T06:25:54;2.03;;;0.83;;
1993;SDS011;998;49.906;10.908;2023-05-10T06:28:21;2.30;;;0.90;;
1993;SDS011;998;49.906;10.908;2023-05-10T06:30:49;2.50;;;0.90;;
1993;SDS011;998;49.906;10.908;2023-05-10T06:33:16;2.30;;;1.10;;
1993;SDS011;998;49.906;10.908;2023-05-10T06:35:45;2.47;;;0.90;;
1993;SDS011;998;49.906;10.908;2023-05-10T06:38:12;2.40;;;1.00;;
1993;SDS011;998;49.906;10.908;2023-05-10T06:40:41;2.40;;;1.00;;
1993;SDS011;998;49.906;10.908;2023-05-10T06:43:08;4.23;;;1.03;;
1993;SDS011;998;49.906;10.908;2023-05-10T06:45:36;3.40;;;0.90;;
1993;SDS011;998;49.906;10.908;2023-05-10T06:48:03;2.10;;;0.90;;
1993;SDS011;998;49.906;10.908;2023-05-10T06:50:31;2.10;;;1.00;;
1993;SDS011;998;49.906;10.908;2023-05-10T06:53:00;6.07;;;1.00;;
1993;SDS011;998;49.906;10.908;2023-05-10T06:55:28;2.20;;;0.90;;
1993;SDS011;998;49.906;10.908;2023-05-10T06:57:55;2.67;;;1.20;;
1993;SDS011;998;49.906;10.908;2023-05-10T07:00:23;2.20;;;1.00;;
1993;SDS011;998;49.906;10.908;2023-05-10T07:02:51;2.40;;;1.00;;
1993;SDS011;998;49.906;10.908;2023-05-10T07:05:18;2.73;;;1.10;;
1993;SDS011;998;49.906;10.908;2023-05-10T07:07:46;2.17;;;0.90;;
1993;SDS011;998;49.906;10.908;2023-05-10T07:10:15;2.10;;;1.00;;
1993;SDS011;998;49.906;10.908;2023-05-10T07:12:42;4.30;;;1.10;;
1993;SDS011;998;49.906;10.908;2023-05-10T07:15:10;2.10;;;0.90;;
1993;SDS011;998;49.906;10.908;2023-05-10T07:17:37;2.40;;;1.20;;
1993;SDS011;998;49.906;10.908;2023-05-10T07:20:05;2.37;;;1.00;;
1993;SDS011;998;49.906;10.908;2023-05-10T07:22:34;3.37;;;0.80;;
1993;SDS011;998;49.906;10.908;2023-05-10T07:25:01;2.13;;;1.00;;
1993;SDS011;998;49.906;10.908;2023-05-10T07:27:30;2.07;;;0.93;;
1993;SDS011;998;49.906;10.908;2023-05-10T07:29:58;2.80;;;1.00;;
1993;SDS011;998;49.906;10.908;2023-05-10T07:32:25;1.90;;;0.70;;
1993;SDS011;998;49.906;10.908;2023-05-10T07:34:53;2.50;;;0.93;;
1993;SDS011;998;49.906;10.908;2023-05-10T07:37:20;2.50;;;1.00;;
1993;SDS011;998;49.906;10.908;2023-05-10T07:39:47;3.83;;;2.00;;
1993;SDS011;998;49.906;10.908;2023-05-10T07:42:15;2.50;;;1.07;;
1993;SDS011;998;49.906;10.908;2023-05-10T07:44:44;3.03;;;0.90;;
1993;SDS011;998;49.906;10.908;2023-05-10T07:47:12;2.20;;;1.13;;
1993;SDS011;998;49.906;10.908;2023-05-10T07:49:39;2.00;;;0.90;;
1993;SDS011;998;49.906;10.908;2023-05-10T07:52:07;2.00;;;0.90;;
1993;SDS011;998;49.906;10.908;2023-05-10T07:54:34;2.30;;;0.90;;
1993;SDS011;998;49.906;10.908;2023-05-10T07:57:02;2.10;;;0.83;;
1993;SDS011;998;49.906;10.908;2023-05-10T07:59:30;2.87;;;1.00;;
1993;SDS011;998;49.906;10.908;2023-05-10T08:01:59;4.20;;;1.27;;
1993;SDS011;998;49.906;10.908;2023-05-10T08:04:26;2.23;;;1.00;;
1993;SDS011;998;49.906;10.908;2023-05-10T08:06:54;3.37;;;1.03;;
1993;SDS011;998;49.906;10.908;2023-05-10T08:09:21;2.03;;;0.90;;
1993;SDS011;998;49.906;10.908;2023-05-10T08:11:49;2.20;;;1.00;;
1993;SDS011;998;49.906;10.908;2023-05-10T08:14:16;2.20;;;1.03;;
1993;SDS011;998;49.906;10.908;2023-05-10T08:16:44;2.30;;;1.00;;
1993;SDS011;998;49.906;10.908;2023-05-10T08:19:12;2.80;;;1.20;;
1993;SDS011;998;49.906;10.908;2023-05-10T08:21:44;2.30;;;1.00;;
1993;SDS011;998;49.906;10.908;2023-05-10T08:24:11;2.33;;;0.90;;
1993;SDS011;998;49.906;10.908;2023-05-10T08:26:39;3.30;;;1.40;;
1993;SDS011;998;49.906;10.908;2023-05-10T08:29:06;3.47;;;1.67;;
1993;SDS011;998;49.906;10.908;2023-05-10T08:31:33;5.10;;;2.67;;
1993;SDS011;998;49.906;10.908;2023-05-10T08:34:01;6.93;;;2.07;;
1993;SDS011;998;49.906;10.908;2023-05-10T08:36:30;6.37;;;1.03;;
1993;SDS011;998;49.906;10.908;2023-05-10T08:38:57;2.33;;;0.90;;
1993;SDS011;998;49.906;10.908;2023-05-10T08:41:25;3.07;;;1.27;;
1993;SDS011;998;49.906;10.908;2023-05-10T08:43:52;2.87;;;1.00;;
1993;SDS011;998;49.906;10.908;2023-05-10T08:46:21;2.60;;;1.10;;
1993;SDS011;998;49.906;10.908;2023-05-10T08:48:50;2.50;;;1.20;;
1993;SDS011;998;49.906;10.908;2023-05-10T08:51:18;2.60;;;1.20;;
1993;SDS011;998;49.906;10.908;2023-05-10T08:53:47;2.30;;;1.10;;
1993;SDS011;998;49.906;10.908;2023-05-10T08:56:15;3.13;;;0.90;;
1993;SDS011;998;49.906;10.908;2023-05-10T08:58:43;3.80;;;1.87;;
1993;SDS011;998;49.906;10.908;2023-05-10T09:01:10;4.43;;;1.73;;
1993;SDS011;998;49.906;10.908;2023-05-10T09:03:39;5.80;;;1.80;;
1993;SDS011;998;49.906;10.908;2023-05-10T09:06:07;3.00;;;1.50;;
1993;SDS011;998;49.906;10.908;2023-05-10T09:08:34;3.80;;;1.43;;
1993;SDS011;998;49.906;10.908;2023-05-10T09:11:05;4.30;;;2.33;;
1993;SDS011;998;49.906;10.908;2023-05-10T09:13:33;5.80;;;2.70;;
1993;SDS011;998;49.906;10.908;2023-05-10T09:16:01;4.40;;;2.40;;
1993;SDS011;998;49.906;10.908;2023-05-10T09:18:31;3.60;;;1.60;;
1993;SDS011;998;49.906;10.908;2023-05-10T09:21:03;7.27;;;2.07;;
1993;SDS011;998;49.906;10.908;2023-05-10T09:23:35;4.30;;;1.80;;
1993;SDS011;998;49.906;10.908;2023-05-10T09:26:06;3.27;;;1.47;;
1993;SDS011;998;49.906;10.908;2023-05-10T09:28:49;2.80;;;1.60;;
1993;SDS011;998;49.906;10.908;2023-05-10T09:31:18;5.73;;;2.80;;
1993;SDS011;998;49.906;10.908;2023-05-10T09:33:46;5.00;;;1.73;;
1993;SDS011;998;49.906;10.908;2023-05-10T09:36:14;2.50;;;1.00;;
1993;SDS011;998;49.906;10.908;2023-05-10T09:38:46;3.67;;;1.90;;
1993;SDS011;998;49.906;10.908;2023-05-10T09:41:19;5.03;;;2.03;;
1993;SDS011;998;49.906;10.908;2023-05-10T09:43:47;3.00;;;1.60;;
1993;SDS011;998;49.906;10.908;2023-05-10T09:46:15;5.13;;;2.23;;
1993;SDS011;998;49.906;10.908;2023-05-10T09:48:43;3.80;;;1.70;;
1993;SDS011;998;49.906;10.908;2023-05-10T09:51:18;4.80;;;1.50;;
1993;SDS011;998;49.906;10.908;2023-05-10T09:53:46;2.30;;;1.00;;
1993;SDS011;998;49.906;10.908;2023-05-10T09:56:21;2.40;;;1.50;;
1993;SDS011;998;49.906;10.908;2023-05-10T09:59:03;3.30;;;1.17;;
1993;SDS011;998;49.906;10.908;2023-05-10T10:01:30;3.30;;;1.60;;
1993;SDS011;998;49.906;10.908;2023-05-10T10:03:58;6.80;;;2.77;;
1993;SDS011;998;49.906;10.908;2023-05-10T10:06:25;3.00;;;1.73;;
1993;SDS011;998;49.906;10.908;2023-05-10T10:08:53;3.03;;;1.30;;
1993;SDS011;998;49.906;10.908;2023-05-10T10:11:22;2.80;;;1.53;;
1993;SDS011;998;49.906;10.908;2023-05-10T10:13:50;2.43;;;1.30;;
1993;SDS011;998;49.906;10.908;2023-05-10T10:16:18;3.03;;;1.50;;
1993;SDS011;998;49.906;10.908;2023-05-10T10:18:47;3.63;;;2.13;;
1993;SDS011;998;49.906;10.908;2023-05-10T10:21:14;4.03;;;1.67;;
1993;SDS011;998;49.906;10.908;2023-05-10T10:23:43;2.43;;;1.33;;
1993;SDS011;998;49.906;10.908;2023-05-10T10:26:10;5.00;;;1.70;;
1993;SDS011;998;49.906;10.908;2023-05-10T10:28:40;3.20;;;1.70;;
1993;SDS011;998;49.906;10.908;2023-05-10T10:31:17;2.70;;;1.30;;
1993;SDS011;998;49.906;10.908;2023-05-10T10:33:56;2.43;;;1.17;;
1993;SDS011;998;49.906;10.908;2023-05-10T10:36:28;2.73;;;1.23;;
1993;SDS011;998;49.906;10.908;2023-05-10T10:38:59;2.73;;;1.00;;
1993;SDS011;998;49.906;10.908;2023-05-10T10:41:32;3.40;;;1.33;;
1993;SDS011;998;49.906;10.908;2023-05-10T10:46:59;12.87;;;4.87;;
1993;SDS011;998;49.906;10.908;2023-05-10T10:49:27;2.37;;;1.17;;
1993;SDS011;998;49.906;10.908;2023-05-10T10:52:12;2.97;;;1.33;;
1993;SDS011;998;49.906;10.908;2023-05-10T10:54:41;3.30;;;1.20;;
1993;SDS011;998;49.906;10.908;2023-05-10T10:57:13;2.57;;;1.13;;
1993;SDS011;998;49.906;10.908;2023-05-10T10:59:43;2.50;;;1.20;;
1993;SDS011;998;49.906;10.908;2023-05-10T11:02:17;2.20;;;1.07;;
1993;SDS011;998;49.906;10.908;2023-05-10T11:05:00;2.80;;;1.17;;
1993;SDS011;998;49.906;10.908;2023-05-10T11:07:52;3.77;;;1.23;;
1993;SDS011;998;49.906;10.908;2023-05-10T11:10:20;2.87;;;1.10;;
1993;SDS011;998;49.906;10.908;2023-05-10T11:12:51;2.50;;;1.77;;
1993;SDS011;998;49.906;10.908;2023-05-10T11:15:21;2.70;;;1.40;;
1993;SDS011;998;49.906;10.908;2023-05-10T11:17:55;2.80;;;1.47;;
1993;SDS011;998;49.906;10.908;2023-05-10T11:20:23;2.40;;;1.20;;
1993;SDS011;998;49.906;10.908;2023-05-10T11:22:59;7.23;;;2.60;;
1993;SDS011;998;49.906;10.908;2023-05-10T11:25:41;2.73;;;1.50;;
1993;SDS011;998;49.906;10.908;2023-05-10T11:28:10;3.40;;;1.70;;
1993;SDS011;998;49.906;10.908;2023-05-10T11:30:39;3.00;;;1.30;;
1993;SDS011;998;49.906;10.908;2023-05-10T11:33:09;2.70;;;1.30;;
1993;SDS011;998;49.906;10.908;2023-05-10T11:35:42;2.40;;;1.10;;
1993;SDS011;998;49.906;10.908;2023-05-10T11:38:10;2.90;;;1.30;;
1993;SDS011;998;49.906;10.908;2023-05-10T11:40:39;2.90;;;1.30;;
1993;SDS011;998;49.906;10.908;2023-05-10T11:43:08;3.10;;;1.80;;
1993;SDS011;998;49.906;10.908;2023-05-10T11:45:36;2.80;;;1.80;;
1993;SDS011;998;49.906;10.908;2023-05-10T11:48:05;5.13;;;1.90;;
1993;SDS011;998;49.906;10.908;2023-05-10T11:50:32;6.00;;;1.80;;
1993;SDS011;998;49.906;10.908;2023-05-10T11:53:00;7.27;;;1.77;;
1993;SDS011;998;49.906;10.908;2023-05-10T11:55:27;4.57;;;2.27;;
1993;SDS011;998;49.906;10.908;2023-05-10T11:58:00;4.67;;;2.80;;
1993;SDS011;998;49.906;10.908;2023-05-10T12:00:29;3.50;;;1.30;;
1993;SDS011;998;49.906;10.908;2023-05-10T12:02:57;2.80;;;1.20;;
1993;SDS011;998;49.906;10.908;2023-05-10T12:05:28;3.60;;;1.43;;
1993;SDS011;998;49.906;10.908;2023-05-10T12:08:12;2.50;;;1.10;;
1993;SDS011;998;49.906;10.908;2023-05-10T12:10:40;2.97;;;1.13;;
1993;SDS011;998;49.906;10.908;2023-05-10T12:13:10;3.97;;;1.50;;
1993;SDS011;998;49.906;10.908;2023-05-10T12:15:38;3.97;;;1.20;;
1993;SDS011;998;49.906;10.908;2023-05-10T12:18:07;3.50;;;1.60;;
1993;SDS011;998;49.906;10.908;2023-05-10T12:20:37;4.20;;;1.53;;
1993;SDS011;998;49.906;10.908;2023-05-10T12:23:05;2.80;;;1.53;;
1993;SDS011;998;49.906;10.908;2023-05-10T12:25:36;4.00;;;1.60;;
1993;SDS011;998;49.906;10.908;2023-05-10T12:28:05;2.70;;;1.20;;
1993;SDS011;998;49.906;10.908;2023-05-10T12:30:35;3.00;;;1.63;;
1993;SDS011;998;49.906;10.908;2023-05-10T12:33:07;2.50;;;1.20;;
1993;SDS011;998;49.906;10.908;2023-05-10T12:35:45;3.93;;;2.00;;
1993;SDS011;998;49.906;10.908;2023-05-10T12:38:24;4.30;;;1.67;;
1993;SDS011;998;49.906;10.908;2023-05-10T12:40:54;3.27;;;1.53;;
1993;SDS011;998;49.906;10.908;2023-05-10T12:43:22;2.90;;;2.07;;
1993;SDS011;998;49.906;10.908;2023-05-10T12:45:49;4.10;;;2.03;;
1993;SDS011;998;49.906;10.908;2023-05-10T12:48:17;5.53;;;1.60;;
1993;SDS011;998;49.906;10.908;2023-05-10T12:50:46;2.40;;;1.30;;
1993;SDS011;998;49.906;10.908;2023-05-10T12:53:14;3.10;;;1.63;;
1993;SDS011;998;49.906;10.908;2023-05-10T12:55:42;4.33;;;2.00;;
1993;SDS011;998;49.906;10.908;2023-05-10T12:58:09;5.17;;;1.60;;
1993;SDS011;998;49.906;10.908;2023-05-10T13:00:36;3.40;;;1.80;;
1993;SDS011;998;49.906;10.908;2023-05-10T13:03:03;2.53;;;1.30;;
1993;SDS011;998;49.906;10.908;2023-05-10T13:05:31;2.43;;;1.20;;
1993;SDS011;998;49.906;10.908;2023-05-10T13:08:00;2.57;;;1.10;;
1993;SDS011;998;49.906;10.908;2023-05-10T13:10:28;2.33;;;0.90;;
1993;SDS011;998;49.906;10.908;2023-05-10T13:12:56;2.97;;;1.20;;
1993;SDS011;998;49.906;10.908;2023-05-10T13:15:24;4.97;;;1.37;;
1993;SDS011;998;49.906;10.908;2023-05-10T13:17:52;2.27;;;1.00;;
1993;SDS011;998;49.906;10.908;2023-05-10T13:20:20;2.40;;;1.10;;
1993;SDS011;998;49.906;10.908;2023-05-10T13:22:47;2.10;;;0.93;;
1993;SDS011;998;49.906;10.908;2023-05-10T13:25:16;2.30;;;0.97;;
1993;SDS011;998;49.906;10.908;2023-05-10T13:27:44;3.80;;;1.37;;
1993;SDS011;998;49.906;10.908;2023-05-10T13:30:11;2.10;;;0.80;;
1993;SDS011;998;49.906;10.908;2023-05-10T13:32:39;3.60;;;2.03;;
1993;SDS011;998;49.906;10.908;2023-05-10T13:35:07;2.57;;;1.03;;
1993;SDS011;998;49.906;10.908;2023-05-10T13:37:34;2.40;;;1.00;;
1993;SDS011;998;49.906;10.908;2023-05-10T13:40:02;4.37;;;1.20;;
1993;SDS011;998;49.906;10.908;2023-05-10T13:42:32;3.70;;;1.30;;
1993;SDS011;998;49.906;10.908;2023-05-10T13:45:00;2.10;;;0.90;;
1993;SDS011;998;49.906;10.908;2023-05-10T13:47:27;2.63;;;1.00;;
1993;SDS011;998;49.906;10.908;2023-05-10T13:49:55;2.50;;;1.13;;
1993;SDS011;998;49.906;10.908;2023-05-10T13:52:22;2.30;;;1.00;;
1993;SDS011;998;49.906;10.908;2023-05-10T13:54:50;2.50;;;1.50;;
1993;SDS011;998;49.906;10.908;2023-05-10T13:57:20;6.60;;;2.20;;
1993;SDS011;998;49.906;10.908;2023-05-10T13:59:49;4.00;;;1.50;;
1993;SDS011;998;49.906;10.908;2023-05-10T14:02:17;3.40;;;1.43;;
1993;SDS011;998;49.906;10.908;2023-05-10T14:04:45;2.73;;;1.50;;
1993;SDS011;998;49.906;10.908;2023-05-10T14:07:13;2.30;;;1.13;;
1993;SDS011;998;49.906;10.908;2023-05-10T14:09:40;3.10;;;1.27;;
1993;SDS011;998;49.906;10.908;2023-05-10T14:12:08;3.10;;;1.57;;
1993;SDS011;998;49.906;10.908;2023-05-10T14:14:35;5.60;;;1.27;;
1993;SDS011;998;49.906;10.908;2023-05-10T14:17:04;2.50;;;1.30;;
1993;SDS011;998;49.906;10.908;2023-05-10T14:19:31;6.43;;;2.13;;
1993;SDS011;998;49.906;10.908;2023-05-10T14:21:59;10.00;;;1.50;;
1993;SDS011;998;49.906;10.908;2023-05-10T14:24:26;2.57;;;1.30;;
1993;SDS011;998;49.906;10.908;2023-05-10T14:26:54;7.10;;;1.50;;
1993;SDS011;998;49.906;10.908;2023-05-10T14:29:20;2.93;;;1.30;;
1993;SDS011;998;49.906;10.908;2023-05-10T14:31:49;3.27;;;1.63;;
1993;SDS011;998;49.906;10.908;2023-05-10T14:34:17;2.47;;;1.47;;
1993;SDS011;998;49.906;10.908;2023-05-10T14:36:45;2.40;;;1.30;;
1993;SDS011;998;49.906;10.908;2023-05-10T14:39:12;2.60;;;1.40;;
1993;SDS011;998;49.906;10.908;2023-05-10T14:41:40;2.60;;;1.43;;
1993;SDS011;998;49.906;10.908;2023-05-10T14:44:08;3.30;;;1.27;;
1993;SDS011;998;49.906;10.908;2023-05-10T14:46:35;2.83;;;1.50;;
1993;SDS011;998;49.906;10.908;2023-05-10T14:49:03;3.00;;;1.47;;
1993;SDS011;998;49.906;10.908;2023-05-10T14:51:32;3.90;;;1.30;;
1993;SDS011;998;49.906;10.908;2023-05-10T15:12:12;6.50;;;2.30;;
1993;SDS011;998;49.906;10.908;2023-05-10T15:14:40;3.00;;;1.90;;
1993;SDS011;998;49.906;10.908;2023-05-10T15:17:07;3.70;;;1.60;;
1993;SDS011;998;49.906;10.908;2023-05-10T15:19:34;4.20;;;1.43;;
1993;SDS011;998;49.906;10.908;2023-05-10T15:22:02;4.73;;;1.20;;
1993;SDS011;998;49.906;10.908;2023-05-10T15:24:30;5.93;;;2.07;;
1993;SDS011;998;49.906;10.908;2023-05-10T15:26:57;4.27;;;1.83;;
1993;SDS011;998;49.906;10.908;2023-05-10T15:29:25;4.10;;;1.80;;
1993;SDS011;998;49.906;10.908;2023-05-10T15:31:52;3.00;;;1.50;;
1993;SDS011;998;49.906;10.908;2023-05-10T15:34:19;2.77;;;1.13;;
1993;SDS011;998;49.906;10.908;2023-05-10T15:36:46;2.90;;;1.40;;
1993;SDS011;998;49.906;10.908;2023-05-10T15:39:13;2.83;;;1.40;;
1993;SDS011;998;49.906;10.908;2023-05-10T15:41:40;2.40;;;1.10;;
1993;SDS011;998;49.906;10.908;2023-05-10T15:44:08;2.90;;;1.10;;
1993;SDS011;998;49.906;10.908;2023-05-10T15:46:37;3.43;;;1.10;;